sensor_id;sensor_type;location;lat;lon;timestamp;temperature;humidity
78289;DHT22;67539;48.752;12.922;2023-04-16T00:00:18;7.00;99.90
78289;DHT22;67539;48.752;12.922;2023-04-16T00:02:47;7.00;99.90
78289;DHT22;67539;48.752;12.922;2023-04-16T00:05:17;7.00;99.90
78289;DHT22;67539;48.752;12.922;2023-04-16T00:07:45;7.00;99.90
78289;DHT22;67539;48.752;12.922;2023-04-16T00:10:13;7.00;99.90
78289;DHT22;67539;48.752;12.922;2023-04-16T00:12:41;7.00;99.90
78289;DHT22;67539;48.752;12.922;2023-04-16T00:15:10;6.90;99.90
78289;DHT22;67539;48.752;12.922;2023-04-16T00:17:38;6.90;99.90
78289;DHT22;67539;48.752;12.922;2023-04-16T00:20:07;6.90;99.90
78289;DHT22;67539;48.752;12.922;2023-04-16T00:22:38;6.90;99.90
78289;DHT22;67539;48.752;12.922;2023-04-16T00:25:07;6.90;99.90
78289;DHT22;67539;48.752;12.922;2023-04-16T00:27:35;6.90;99.90
78289;DHT22;67539;48.752;12.922;2023-04-16T00:30:04;6.90;99.90
78289;DHT22;67539;48.752;12.922;2023-04-16T00:32:32;6.90;99.90
78289;DHT22;67539;48.752;12.922;2023-04-16T00:35:00;6.90;99.90
78289;DHT22;67539;48.752;12.922;2023-04-16T00:37:29;6.90;99.90
78289;DHT22;67539;48.752;12.922;2023-04-16T00:39:59;6.90;99.90
78289;DHT22;67539;48.752;12.922;2023-04-16T00:42:27;6.90;99.90
78289;DHT22;67539;48.752;12.922;2023-04-16T00:44:55;7.00;99.90
78289;DHT22;67539;48.752;12.922;2023-04-16T00:47:23;7.00;99.90
78289;DHT22;67539;48.752;12.922;2023-04-16T00:49:54;7.10;99.90
78289;DHT22;67539;48.752;12.922;2023-04-16T00:52:22;7.00;99.90
78289;DHT22;67539;48.752;12.922;2023-04-16T00:54:51;7.10;99.90
78289;DHT22;67539;48.752;12.922;2023-04-16T00:57:22;7.10;99.90
78289;DHT22;67539;48.752;12.922;2023-04-16T00:59:50;7.10;99.90
78289;DHT22;67539;48.752;12.922;2023-04-16T01:02:18;7.20;99.90
78289;DHT22;67539;48.752;12.922;2023-04-16T01:04:49;7.20;99.90
78289;DHT22;67539;48.752;12.922;2023-04-16T01:07:17;7.20;99.90
78289;DHT22;67539;48.752;12.922;2023-04-16T01:09:45;7.20;99.90
78289;DHT22;67539;48.752;12.922;2023-04-16T01:12:14;7.30;99.90
78289;DHT22;67539;48.752;12.922;2023-04-16T01:14:43;7.30;99.90
78289;DHT22;67539;48.752;12.922;2023-04-16T01:17:11;7.30;99.90
78289;DHT22;67539;48.752;12.922;2023-04-16T01:19:39;7.30;99.90
78289;DHT22;67539;48.752;12.922;2023-04-16T01:22:09;7.30;99.90
78289;DHT22;67539;48.752;12.922;2023-04-16T01:24:37;7.30;99.90
78289;DHT22;67539;48.752;12.922;2023-04-16T01:27:09;7.30;99.90
78289;DHT22;67539;48.752;12.922;2023-04-16T01:29:37;7.40;99.90
78289;DHT22;67539;48.752;12.922;2023-04-16T01:32:05;7.40;99.90
78289;DHT22;67539;48.752;12.922;2023-04-16T01:34:35;7.40;99.90
78289;DHT22;67539;48.752;12.922;2023-04-16T01:37:04;7.40;99.90
78289;DHT22;67539;48.752;12.922;2023-04-16T01:39:35;7.40;99.90
78289;DHT22;67539;48.752;12.922;2023-04-16T01:42:03;7.40;99.90
78289;DHT22;67539;48.752;12.922;2023-04-16T01:44:31;7.40;99.90
78289;DHT22;67539;48.752;12.922;2023-04-16T01:46:59;7.40;99.90
78289;DHT22;67539;48.752;12.922;2023-04-16T01:49:28;7.40;99.90
78289;DHT22;67539;48.752;12.922;2023-04-16T01:51:56;7.40;99.90
78289;DHT22;67539;48.752;12.922;2023-04-16T01:54:24;7.40;99.90
78289;DHT22;67539;48.752;12.922;2023-04-16T01:56:53;7.40;99.90
78289;DHT22;67539;48.752;12.922;2023-04-16T01:59:22;7.40;99.90
78289;DHT22;67539;48.752;12.922;2023-04-16T02:01:50;7.40;99.90
78289;DHT22;67539;48.752;12.922;2023-04-16T02:04:19;7.50;99.90
78289;DHT22;67539;48.752;12.922;2023-04-16T02:06:47;7.40;99.90
78289;DHT22;67539;48.752;12.922;2023-04-16T02:09:15;7.40;99.90
78289;DHT22;67539;48.752;12.922;2023-04-16T02:11:43;7.40;99.90
78289;DHT22;67539;48.752;12.922;2023-04-16T02:14:13;7.40;99.90
78289;DHT22;67539;48.752;12.922;2023-04-16T02:16:41;7.40;99.90
78289;DHT22;67539;48.752;12.922;2023-04-16T02:19:22;7.30;99.90
78289;DHT22;67539;48.752;12.922;2023-04-16T02:21:50;7.30;99.90
78289;DHT22;67539;48.752;12.922;2023-04-16T02:24:18;7.30;99.90
78289;DHT22;67539;48.752;12.922;2023-04-16T02:26:47;7.30;99.90
78289;DHT22;67539;48.752;12.922;2023-04-16T02:29:18;7.40;99.90
78289;DHT22;67539;48.752;12.922;2023-04-16T02:31:53;7.40;99.90
78289;DHT22;67539;48.752;12.922;2023-04-16T02:34:22;7.40;99.90
78289;DHT22;67539;48.752;12.922;2023-04-16T02:36:52;7.40;99.90
78289;DHT22;67539;48.752;12.922;2023-04-16T02:39:21;7.40;99.90
78289;DHT22;67539;48.752;12.922;2023-04-16T02:41:49;7.40;99.90
78289;DHT22;67539;48.752;12.922;2023-04-16T02:44:18;7.30;99.90
78289;DHT22;67539;48.752;12.922;2023-04-16T02:46:47;7.30;99.90
78289;DHT22;67539;48.752;12.922;2023-04-16T02:49:15;7.30;99.90
78289;DHT22;67539;48.752;12.922;2023-04-16T02:51:43;7.30;99.90
78289;DHT22;67539;48.752;12.922;2023-04-16T02:54:11;7.30;99.90
78289;DHT22;67539;48.752;12.922;2023-04-16T02:56:39;7.30;99.90
78289;DHT22;67539;48.752;12.922;2023-04-16T02:59:07;7.30;99.90
78289;DHT22;67539;48.752;12.922;2023-04-16T03:01:37;7.30;99.90
78289;DHT22;67539;48.752;12.922;2023-04-16T03:04:05;7.30;99.90
78289;DHT22;67539;48.752;12.922;2023-04-16T03:06:33;7.30;99.90
78289;DHT22;67539;48.752;12.922;2023-04-16T03:09:01;7.30;99.90
78289;DHT22;67539;48.752;12.922;2023-04-16T03:11:29;7.30;99.90
78289;DHT22;67539;48.752;12.922;2023-04-16T03:13:58;7.30;99.90
78289;DHT22;67539;48.752;12.922;2023-04-16T03:16:26;7.30;99.90
78289;DHT22;67539;48.752;12.922;2023-04-16T03:18:55;7.30;99.90
78289;DHT22;67539;48.752;12.922;2023-04-16T03:21:24;7.30;99.90
78289;DHT22;67539;48.752;12.922;2023-04-16T03:23:53;7.30;99.90
78289;DHT22;67539;48.752;12.922;2023-04-16T03:26:21;7.30;99.90
78289;DHT22;67539;48.752;12.922;2023-04-16T03:28:50;7.30;99.90
78289;DHT22;67539;48.752;12.922;2023-04-16T03:31:18;7.20;99.90
78289;DHT22;67539;48.752;12.922;2023-04-16T03:33:46;7.20;99.90
78289;DHT22;67539;48.752;12.922;2023-04-16T03:36:15;7.20;99.90
78289;DHT22;67539;48.752;12.922;2023-04-16T03:38:44;7.10;99.90
78289;DHT22;67539;48.752;12.922;2023-04-16T03:41:12;7.10;99.90
78289;DHT22;67539;48.752;12.922;2023-04-16T03:43:41;7.10;99.90
78289;DHT22;67539;48.752;12.922;2023-04-16T03:46:09;7.00;99.90
78289;DHT22;67539;48.752;12.922;2023-04-16T03:48:37;7.00;99.90
78289;DHT22;67539;48.752;12.922;2023-04-16T03:51:06;7.00;99.90
78289;DHT22;67539;48.752;12.922;2023-04-16T03:53:35;7.00;99.90
78289;DHT22;67539;48.752;12.922;2023-04-16T03:56:04;7.00;99.90
78289;DHT22;67539;48.752;12.922;2023-04-16T03:58:32;7.00;99.90
78289;DHT22;67539;48.752;12.922;2023-04-16T04:01:00;7.00;99.90
78289;DHT22;67539;48.752;12.922;2023-04-16T04:03:28;7.00;99.90
78289;DHT22;67539;48.752;12.922;2023-04-16T04:05:57;6.90;99.90
78289;DHT22;67539;48.752;12.922;2023-04-16T04:08:28;6.90;99.90
78289;DHT22;67539;48.752;12.922;2023-04-16T04:10:58;6.90;99.90
78289;DHT22;67539;48.752;12.922;2023-04-16T04:13:26;6.80;99.90
78289;DHT22;67539;48.752;12.922;2023-04-16T04:15:54;6.80;99.90
78289;DHT22;67539;48.752;12.922;2023-04-16T04:18:23;6.70;99.90
78289;DHT22;67539;48.752;12.922;2023-04-16T04:20:52;6.70;99.90
78289;DHT22;67539;48.752;12.922;2023-04-16T04:23:23;6.70;99.90
78289;DHT22;67539;48.752;12.922;2023-04-16T04:25:51;6.60;99.90
78289;DHT22;67539;48.752;12.922;2023-04-16T04:28:21;6.50;99.90
78289;DHT22;67539;48.752;12.922;2023-04-16T04:30:49;6.50;99.90
78289;DHT22;67539;48.752;12.922;2023-04-16T04:33:18;6.50;99.90
78289;DHT22;67539;48.752;12.922;2023-04-16T04:35:46;6.40;99.90
78289;DHT22;67539;48.752;12.922;2023-04-16T04:38:15;6.40;99.90
78289;DHT22;67539;48.752;12.922;2023-04-16T04:40:46;6.40;99.90
78289;DHT22;67539;48.752;12.922;2023-04-16T04:43:16;6.30;99.90
78289;DHT22;67539;48.752;12.922;2023-04-16T04:45:46;6.30;99.90
78289;DHT22;67539;48.752;12.922;2023-04-16T04:48:15;6.30;99.90
78289;DHT22;67539;48.752;12.922;2023-04-16T04:50:45;6.30;99.90
78289;DHT22;67539;48.752;12.922;2023-04-16T04:53:13;6.30;99.90
78289;DHT22;67539;48.752;12.922;2023-04-16T04:55:42;6.30;99.90
78289;DHT22;67539;48.752;12.922;2023-04-16T04:58:10;6.30;99.90
78289;DHT22;67539;48.752;12.922;2023-04-16T05:00:40;6.30;99.90
78289;DHT22;67539;48.752;12.922;2023-04-16T05:03:10;6.30;99.90
78289;DHT22;67539;48.752;12.922;2023-04-16T05:05:39;6.30;99.90
78289;DHT22;67539;48.752;12.922;2023-04-16T05:08:07;6.30;99.90
78289;DHT22;67539;48.752;12.922;2023-04-16T05:10:35;6.30;99.90
78289;DHT22;67539;48.752;12.922;2023-04-16T05:13:03;6.30;99.90
78289;DHT22;67539;48.752;12.922;2023-04-16T05:15:32;6.40;99.90
78289;DHT22;67539;48.752;12.922;2023-04-16T05:18:00;6.40;99.90
78289;DHT22;67539;48.752;12.922;2023-04-16T05:20:29;6.40;99.90
78289;DHT22;67539;48.752;12.922;2023-04-16T05:22:57;6.40;99.90
78289;DHT22;67539;48.752;12.922;2023-04-16T05:25:25;6.40;99.90
78289;DHT22;67539;48.752;12.922;2023-04-16T05:27:53;6.50;99.90
78289;DHT22;67539;48.752;12.922;2023-04-16T05:30:21;6.50;99.90
78289;DHT22;67539;48.752;12.922;2023-04-16T05:32:50;6.60;99.90
78289;DHT22;67539;48.752;12.922;2023-04-16T05:35:19;6.60;99.90
78289;DHT22;67539;48.752;12.922;2023-04-16T05:37:48;6.60;99.90
78289;DHT22;67539;48.752;12.922;2023-04-16T05:40:16;6.60;99.90
78289;DHT22;67539;48.752;12.922;2023-04-16T05:42:44;6.70;99.90
78289;DHT22;67539;48.752;12.922;2023-04-16T05:45:12;6.80;99.90
78289;DHT22;67539;48.752;12.922;2023-04-16T05:47:40;6.80;99.90
78289;DHT22;67539;48.752;12.922;2023-04-16T05:50:09;6.80;99.90
78289;DHT22;67539;48.752;12.922;2023-04-16T05:52:38;6.90;99.90
78289;DHT22;67539;48.752;12.922;2023-04-16T05:55:08;6.90;99.90
78289;DHT22;67539;48.752;12.922;2023-04-16T05:57:37;6.90;99.90
78289;DHT22;67539;48.752;12.922;2023-04-16T06:00:06;6.90;99.90
78289;DHT22;67539;48.752;12.922;2023-04-16T06:02:40;7.00;99.90
78289;DHT22;67539;48.752;12.922;2023-04-16T06:05:08;7.00;99.90
78289;DHT22;67539;48.752;12.922;2023-04-16T06:07:36;7.10;99.90
78289;DHT22;67539;48.752;12.922;2023-04-16T06:10:07;7.10;99.90
78289;DHT22;67539;48.752;12.922;2023-04-16T06:12:35;7.10;99.90
78289;DHT22;67539;48.752;12.922;2023-04-16T06:15:04;7.20;99.90
78289;DHT22;67539;48.752;12.922;2023-04-16T06:17:32;7.20;99.90
78289;DHT22;67539;48.752;12.922;2023-04-16T06:20:00;7.20;99.90
78289;DHT22;67539;48.752;12.922;2023-04-16T06:22:28;7.30;99.90
78289;DHT22;67539;48.752;12.922;2023-04-16T06:24:56;7.40;99.90
78289;DHT22;67539;48.752;12.922;2023-04-16T06:27:26;7.40;99.90
78289;DHT22;67539;48.752;12.922;2023-04-16T06:29:56;7.40;99.90
78289;DHT22;67539;48.752;12.922;2023-04-16T06:32:25;7.50;99.90
78289;DHT22;67539;48.752;12.922;2023-04-16T06:34:54;7.60;99.90
78289;DHT22;67539;48.752;12.922;2023-04-16T06:37:22;7.60;99.90
78289;DHT22;67539;48.752;12.922;2023-04-16T06:39:50;7.70;99.90
78289;DHT22;67539;48.752;12.922;2023-04-16T06:42:18;7.70;99.90
78289;DHT22;67539;48.752;12.922;2023-04-16T06:44:48;7.80;99.90
78289;DHT22;67539;48.752;12.922;2023-04-16T06:47:16;7.80;99.90
78289;DHT22;67539;48.752;12.922;2023-04-16T06:49:45;7.90;99.90
78289;DHT22;67539;48.752;12.922;2023-04-16T06:52:13;8.00;99.90
78289;DHT22;67539;48.752;12.922;2023-04-16T06:54:41;8.00;99.90
78289;DHT22;67539;48.752;12.922;2023-04-16T06:57:09;8.00;99.90
78289;DHT22;67539;48.752;12.922;2023-04-16T06:59:37;8.00;99.90
78289;DHT22;67539;48.752;12.922;2023-04-16T07:02:07;8.10;99.90
78289;DHT22;67539;48.752;12.922;2023-04-16T07:04:36;8.10;99.90
78289;DHT22;67539;48.752;12.922;2023-04-16T07:07:04;8.20;99.90
78289;DHT22;67539;48.752;12.922;2023-04-16T07:09:32;8.20;99.90
78289;DHT22;67539;48.752;12.922;2023-04-16T07:12:01;8.30;99.90
78289;DHT22;67539;48.752;12.922;2023-04-16T07:14:29;8.40;99.90
78289;DHT22;67539;48.752;12.922;2023-04-16T07:16:57;8.40;99.90
78289;DHT22;67539;48.752;12.922;2023-04-16T07:19:26;8.60;99.90
78289;DHT22;67539;48.752;12.922;2023-04-16T07:21:58;8.60;99.90
78289;DHT22;67539;48.752;12.922;2023-04-16T07:24:26;8.80;99.90
78289;DHT22;67539;48.752;12.922;2023-04-16T07:26:54;8.80;99.90
78289;DHT22;67539;48.752;12.922;2023-04-16T07:29:22;8.90;99.90
78289;DHT22;67539;48.752;12.922;2023-04-16T07:31:50;9.00;99.90
78289;DHT22;67539;48.752;12.922;2023-04-16T07:34:19;9.10;99.90
78289;DHT22;67539;48.752;12.922;2023-04-16T07:36:48;9.10;99.90
78289;DHT22;67539;48.752;12.922;2023-04-16T07:39:16;9.10;99.90
78289;DHT22;67539;48.752;12.922;2023-04-16T07:41:45;9.20;99.90
78289;DHT22;67539;48.752;12.922;2023-04-16T07:44:13;9.20;99.90
78289;DHT22;67539;48.752;12.922;2023-04-16T07:46:41;9.30;99.90
78289;DHT22;67539;48.752;12.922;2023-04-16T07:49:13;9.30;99.90
78289;DHT22;67539;48.752;12.922;2023-04-16T07:51:42;9.30;99.90
78289;DHT22;67539;48.752;12.922;2023-04-16T07:54:11;9.40;99.90
78289;DHT22;67539;48.752;12.922;2023-04-16T07:56:39;9.50;99.90
78289;DHT22;67539;48.752;12.922;2023-04-16T07:59:07;9.70;99.90
78289;DHT22;67539;48.752;12.922;2023-04-16T08:01:49;9.80;99.90
78289;DHT22;67539;48.752;12.922;2023-04-16T08:04:17;9.80;99.90
78289;DHT22;67539;48.752;12.922;2023-04-16T08:06:51;9.80;99.90
78289;DHT22;67539;48.752;12.922;2023-04-16T08:09:22;9.70;99.90
78289;DHT22;67539;48.752;12.922;2023-04-16T08:11:51;9.50;99.90
78289;DHT22;67539;48.752;12.922;2023-04-16T08:14:19;9.40;99.90
78289;DHT22;67539;48.752;12.922;2023-04-16T08:16:47;9.50;99.90
78289;DHT22;67539;48.752;12.922;2023-04-16T08:19:16;9.50;99.90
78289;DHT22;67539;48.752;12.922;2023-04-16T08:21:44;9.50;99.90
78289;DHT22;67539;48.752;12.922;2023-04-16T08:24:12;9.40;99.90
78289;DHT22;67539;48.752;12.922;2023-04-16T08:26:42;9.20;99.90
78289;DHT22;67539;48.752;12.922;2023-04-16T08:29:10;9.20;99.90
78289;DHT22;67539;48.752;12.922;2023-04-16T08:31:38;9.20;99.90
78289;DHT22;67539;48.752;12.922;2023-04-16T08:34:06;9.20;99.90
78289;DHT22;67539;48.752;12.922;2023-04-16T08:36:34;9.20;99.90
78289;DHT22;67539;48.752;12.922;2023-04-16T08:39:02;9.20;99.90
78289;DHT22;67539;48.752;12.922;2023-04-16T08:41:32;9.20;99.90
78289;DHT22;67539;48.752;12.922;2023-04-16T08:44:07;9.20;99.90
78289;DHT22;67539;48.752;12.922;2023-04-16T08:46:36;9.20;99.90
78289;DHT22;67539;48.752;12.922;2023-04-16T08:49:05;9.40;99.90
78289;DHT22;67539;48.752;12.922;2023-04-16T08:51:34;9.60;99.90
78289;DHT22;67539;48.752;12.922;2023-04-16T08:54:04;9.70;99.90
78289;DHT22;67539;48.752;12.922;2023-04-16T08:56:35;9.90;99.90
78289;DHT22;67539;48.752;12.922;2023-04-16T08:59:05;10.10;99.90
78289;DHT22;67539;48.752;12.922;2023-04-16T09:01:34;10.20;99.90
78289;DHT22;67539;48.752;12.922;2023-04-16T09:04:05;10.20;99.90
78289;DHT22;67539;48.752;12.922;2023-04-16T09:06:34;10.30;99.90
78289;DHT22;67539;48.752;12.922;2023-04-16T09:09:03;10.40;99.90
78289;DHT22;67539;48.752;12.922;2023-04-16T09:11:34;10.50;99.90
78289;DHT22;67539;48.752;12.922;2023-04-16T09:14:02;10.50;99.90
78289;DHT22;67539;48.752;12.922;2023-04-16T09:16:33;10.60;99.90
78289;DHT22;67539;48.752;12.922;2023-04-16T09:19:02;10.70;99.90
78289;DHT22;67539;48.752;12.922;2023-04-16T09:21:30;10.70;99.90
78289;DHT22;67539;48.752;12.922;2023-04-16T09:23:59;10.70;99.90
78289;DHT22;67539;48.752;12.922;2023-04-16T09:26:27;10.70;99.90
78289;DHT22;67539;48.752;12.922;2023-04-16T09:28:56;10.50;99.90
78289;DHT22;67539;48.752;12.922;2023-04-16T09:31:24;10.50;99.90
78289;DHT22;67539;48.752;12.922;2023-04-16T09:34:04;10.50;99.90
78289;DHT22;67539;48.752;12.922;2023-04-16T09:36:33;10.50;99.90
78289;DHT22;67539;48.752;12.922;2023-04-16T09:39:02;10.60;99.90
78289;DHT22;67539;48.752;12.922;2023-04-16T09:41:31;10.80;99.90
78289;DHT22;67539;48.752;12.922;2023-04-16T09:44:03;10.90;99.90
78289;DHT22;67539;48.752;12.922;2023-04-16T09:46:34;11.10;99.40
78289;DHT22;67539;48.752;12.922;2023-04-16T09:49:07;11.20;99.10
78289;DHT22;67539;48.752;12.922;2023-04-16T09:51:37;11.30;99.40
78289;DHT22;67539;48.752;12.922;2023-04-16T09:54:05;11.40;98.50
78289;DHT22;67539;48.752;12.922;2023-04-16T09:56:39;11.30;97.30
78289;DHT22;67539;48.752;12.922;2023-04-16T09:59:07;11.30;97.30
78289;DHT22;67539;48.752;12.922;2023-04-16T10:01:36;11.40;97.60
78289;DHT22;67539;48.752;12.922;2023-04-16T10:04:06;11.50;97.10
78289;DHT22;67539;48.752;12.922;2023-04-16T10:06:34;11.50;96.30
78289;DHT22;67539;48.752;12.922;2023-04-16T10:09:06;11.60;96.60
78289;DHT22;67539;48.752;12.922;2023-04-16T10:11:34;11.70;95.40
78289;DHT22;67539;48.752;12.922;2023-04-16T10:14:03;11.80;95.80
78289;DHT22;67539;48.752;12.922;2023-04-16T10:16:31;11.90;95.00
78289;DHT22;67539;48.752;12.922;2023-04-16T10:19:00;12.00;96.20
78289;DHT22;67539;48.752;12.922;2023-04-16T10:21:30;12.00;95.10
78289;DHT22;67539;48.752;12.922;2023-04-16T10:24:00;12.00;95.00
78289;DHT22;67539;48.752;12.922;2023-04-16T10:26:29;11.90;93.00
78289;DHT22;67539;48.752;12.922;2023-04-16T10:28:57;11.90;94.40
78289;DHT22;67539;48.752;12.922;2023-04-16T10:31:26;12.00;92.30
78289;DHT22;67539;48.752;12.922;2023-04-16T10:33:55;12.00;93.50
78289;DHT22;67539;48.752;12.922;2023-04-16T10:36:25;12.10;93.70
78289;DHT22;67539;48.752;12.922;2023-04-16T10:38:57;12.10;94.50
78289;DHT22;67539;48.752;12.922;2023-04-16T10:41:26;12.00;93.20
78289;DHT22;67539;48.752;12.922;2023-04-16T10:44:03;12.00;93.60
78289;DHT22;67539;48.752;12.922;2023-04-16T10:46:36;11.90;92.70
78289;DHT22;67539;48.752;12.922;2023-04-16T10:49:13;11.80;93.90
78289;DHT22;67539;48.752;12.922;2023-04-16T10:51:51;11.70;93.50
78289;DHT22;67539;48.752;12.922;2023-04-16T10:54:23;11.70;93.90
78289;DHT22;67539;48.752;12.922;2023-04-16T10:56:53;11.70;94.20
78289;DHT22;67539;48.752;12.922;2023-04-16T10:59:23;11.70;95.40
78289;DHT22;67539;48.752;12.922;2023-04-16T11:01:52;11.80;95.20
78289;DHT22;67539;48.752;12.922;2023-04-16T11:04:29;11.90;97.20
78289;DHT22;67539;48.752;12.922;2023-04-16T11:07:05;12.00;96.00
78289;DHT22;67539;48.752;12.922;2023-04-16T11:09:52;12.00;95.30
78289;DHT22;67539;48.752;12.922;2023-04-16T11:12:23;12.10;97.20
78289;DHT22;67539;48.752;12.922;2023-04-16T11:14:54;12.20;95.40
78289;DHT22;67539;48.752;12.922;2023-04-16T11:17:28;12.20;93.60
78289;DHT22;67539;48.752;12.922;2023-04-16T11:19:57;12.20;95.10
78289;DHT22;67539;48.752;12.922;2023-04-16T11:22:26;12.20;94.80
78289;DHT22;67539;48.752;12.922;2023-04-16T11:24:55;12.20;93.90
78289;DHT22;67539;48.752;12.922;2023-04-16T11:27:24;12.20;93.80
78289;DHT22;67539;48.752;12.922;2023-04-16T11:29:59;12.40;93.20
78289;DHT22;67539;48.752;12.922;2023-04-16T11:32:30;12.70;92.00
78289;DHT22;67539;48.752;12.922;2023-04-16T11:35:01;12.80;91.50
78289;DHT22;67539;48.752;12.922;2023-04-16T11:37:31;12.90;91.90
78289;DHT22;67539;48.752;12.922;2023-04-16T11:40:03;12.80;91.20
78289;DHT22;67539;48.752;12.922;2023-04-16T11:42:33;12.70;90.10
78289;DHT22;67539;48.752;12.922;2023-04-16T11:45:03;12.60;90.80
78289;DHT22;67539;48.752;12.922;2023-04-16T11:47:41;12.50;90.50
78289;DHT22;67539;48.752;12.922;2023-04-16T11:50:20;12.40;90.40
78289;DHT22;67539;48.752;12.922;2023-04-16T11:52:50;12.40;91.70
78289;DHT22;67539;48.752;12.922;2023-04-16T11:55:20;12.30;91.30
78289;DHT22;67539;48.752;12.922;2023-04-16T11:57:49;12.30;91.20
78289;DHT22;67539;48.752;12.922;2023-04-16T12:00:18;12.40;90.90
78289;DHT22;67539;48.752;12.922;2023-04-16T12:02:51;12.40;92.30
78289;DHT22;67539;48.752;12.922;2023-04-16T12:05:27;12.40;92.40
78289;DHT22;67539;48.752;12.922;2023-04-16T12:07:57;12.60;90.90
78289;DHT22;67539;48.752;12.922;2023-04-16T12:10:27;12.60;89.30
78289;DHT22;67539;48.752;12.922;2023-04-16T12:13:09;12.50;90.20
78289;DHT22;67539;48.752;12.922;2023-04-16T12:15:44;12.60;90.20
78289;DHT22;67539;48.752;12.922;2023-04-16T12:18:12;12.60;90.10
78289;DHT22;67539;48.752;12.922;2023-04-16T12:20:42;12.60;90.00
78289;DHT22;67539;48.752;12.922;2023-04-16T12:23:21;12.70;87.30
78289;DHT22;67539;48.752;12.922;2023-04-16T12:25:51;12.60;86.40
78289;DHT22;67539;48.752;12.922;2023-04-16T12:28:27;12.60;85.90
78289;DHT22;67539;48.752;12.922;2023-04-16T12:30:55;12.60;87.70
78289;DHT22;67539;48.752;12.922;2023-04-16T12:33:24;12.70;89.20
78289;DHT22;67539;48.752;12.922;2023-04-16T12:35:52;12.70;89.10
78289;DHT22;67539;48.752;12.922;2023-04-16T12:38:20;12.80;85.20
78289;DHT22;67539;48.752;12.922;2023-04-16T12:40:51;12.90;85.20
78289;DHT22;67539;48.752;12.922;2023-04-16T12:43:23;12.90;88.90
78289;DHT22;67539;48.752;12.922;2023-04-16T12:45:51;13.10;85.90
78289;DHT22;67539;48.752;12.922;2023-04-16T12:48:19;13.20;87.90
78289;DHT22;67539;48.752;12.922;2023-04-16T12:50:47;13.20;86.40
78289;DHT22;67539;48.752;12.922;2023-04-16T12:53:15;13.20;83.80
78289;DHT22;67539;48.752;12.922;2023-04-16T12:55:43;13.20;83.80
78289;DHT22;67539;48.752;12.922;2023-04-16T12:58:13;13.20;85.50
78289;DHT22;67539;48.752;12.922;2023-04-16T13:00:41;13.20;84.80
78289;DHT22;67539;48.752;12.922;2023-04-16T13:03:09;13.20;83.60
78289;DHT22;67539;48.752;12.922;2023-04-16T13:05:37;13.30;82.70
78289;DHT22;67539;48.752;12.922;2023-04-16T13:08:05;13.40;82.50
78289;DHT22;67539;48.752;12.922;2023-04-16T13:10:35;13.70;81.90
78289;DHT22;67539;48.752;12.922;2023-04-16T13:13:03;13.80;79.10
78289;DHT22;67539;48.752;12.922;2023-04-16T13:15:32;13.80;77.30
78289;DHT22;67539;48.752;12.922;2023-04-16T13:18:00;13.60;76.00
78289;DHT22;67539;48.752;12.922;2023-04-16T13:20:28;13.50;76.50
78289;DHT22;67539;48.752;12.922;2023-04-16T13:22:57;13.50;78.10
78289;DHT22;67539;48.752;12.922;2023-04-16T13:25:25;13.50;78.00
78289;DHT22;67539;48.752;12.922;2023-04-16T13:27:53;13.40;76.90
78289;DHT22;67539;48.752;12.922;2023-04-16T13:30:21;13.40;77.20
78289;DHT22;67539;48.752;12.922;2023-04-16T13:32:51;13.30;78.40
78289;DHT22;67539;48.752;12.922;2023-04-16T13:35:19;13.30;77.00
78289;DHT22;67539;48.752;12.922;2023-04-16T13:37:47;13.20;77.40
78289;DHT22;67539;48.752;12.922;2023-04-16T13:40:15;13.20;78.70
78289;DHT22;67539;48.752;12.922;2023-04-16T13:42:43;13.10;79.00
78289;DHT22;67539;48.752;12.922;2023-04-16T13:45:11;13.10;77.30
78289;DHT22;67539;48.752;12.922;2023-04-16T13:47:40;13.10;79.00
78289;DHT22;67539;48.752;12.922;2023-04-16T13:50:10;13.10;79.30
78289;DHT22;67539;48.752;12.922;2023-04-16T13:52:38;13.00;80.20
78289;DHT22;67539;48.752;12.922;2023-04-16T13:55:07;12.80;83.60
78289;DHT22;67539;48.752;12.922;2023-04-16T13:57:36;12.40;84.90
78289;DHT22;67539;48.752;12.922;2023-04-16T14:00:05;11.90;91.20
78289;DHT22;67539;48.752;12.922;2023-04-16T14:02:39;11.80;95.30
78289;DHT22;67539;48.752;12.922;2023-04-16T14:05:09;11.70;98.00
78289;DHT22;67539;48.752;12.922;2023-04-16T14:07:37;11.40;99.10
78289;DHT22;67539;48.752;12.922;2023-04-16T14:10:07;11.20;99.90
78289;DHT22;67539;48.752;12.922;2023-04-16T14:12:35;11.00;99.90
78289;DHT22;67539;48.752;12.922;2023-04-16T14:15:04;10.70;99.90
78289;DHT22;67539;48.752;12.922;2023-04-16T14:17:35;10.50;99.90
78289;DHT22;67539;48.752;12.922;2023-04-16T14:20:03;10.30;99.90
78289;DHT22;67539;48.752;12.922;2023-04-16T14:22:34;10.10;99.90
78289;DHT22;67539;48.752;12.922;2023-04-16T14:25:02;9.90;99.90
78289;DHT22;67539;48.752;12.922;2023-04-16T14:27:30;9.90;99.90
78289;DHT22;67539;48.752;12.922;2023-04-16T14:29:58;9.80;99.90
78289;DHT22;67539;48.752;12.922;2023-04-16T14:32:26;9.70;99.90
78289;DHT22;67539;48.752;12.922;2023-04-16T14:34:55;9.70;99.90
78289;DHT22;67539;48.752;12.922;2023-04-16T14:37:23;9.70;99.90
78289;DHT22;67539;48.752;12.922;2023-04-16T14:39:53;9.70;99.90
78289;DHT22;67539;48.752;12.922;2023-04-16T14:42:22;9.70;99.90
78289;DHT22;67539;48.752;12.922;2023-04-16T14:44:50;9.80;99.90
78289;DHT22;67539;48.752;12.922;2023-04-16T14:47:18;9.80;99.90
78289;DHT22;67539;48.752;12.922;2023-04-16T14:49:46;9.80;99.90
78289;DHT22;67539;48.752;12.922;2023-04-16T14:52:14;9.70;99.90
78289;DHT22;67539;48.752;12.922;2023-04-16T14:54:42;9.70;99.90
78289;DHT22;67539;48.752;12.922;2023-04-16T14:57:11;9.80;99.90
78289;DHT22;67539;48.752;12.922;2023-04-16T14:59:40;9.90;99.90
78289;DHT22;67539;48.752;12.922;2023-04-16T15:02:08;10.00;99.90
78289;DHT22;67539;48.752;12.922;2023-04-16T15:04:36;10.20;99.90
78289;DHT22;67539;48.752;12.922;2023-04-16T15:07:04;10.30;99.90
78289;DHT22;67539;48.752;12.922;2023-04-16T15:09:33;10.50;99.90
78289;DHT22;67539;48.752;12.922;2023-04-16T15:12:01;10.70;99.90
78289;DHT22;67539;48.752;12.922;2023-04-16T15:14:31;10.80;99.90
78289;DHT22;67539;48.752;12.922;2023-04-16T15:16:59;11.00;99.90
78289;DHT22;67539;48.752;12.922;2023-04-16T15:19:27;11.10;99.90
78289;DHT22;67539;48.752;12.922;2023-04-16T15:21:55;11.20;99.90
78289;DHT22;67539;48.752;12.922;2023-04-16T15:24:23;11.20;99.90
78289;DHT22;67539;48.752;12.922;2023-04-16T15:26:51;11.30;99.90
78289;DHT22;67539;48.752;12.922;2023-04-16T15:29:19;11.40;99.90
78289;DHT22;67539;48.752;12.922;2023-04-16T15:31:49;11.40;99.90
78289;DHT22;67539;48.752;12.922;2023-04-16T15:34:17;11.50;99.90
78289;DHT22;67539;48.752;12.922;2023-04-16T15:36:45;11.60;99.90